sensor_id;sensor_type;location;lat;lon;timestamp;pressure;altitude;pressure_sealevel;temperature;humidity
7441;BME280;29616;51.950;8.572;2023-03-31T00:01:30;98945.97;;;12.01;100.00
7441;BME280;29616;51.950;8.572;2023-03-31T00:04:00;98953.50;;;11.85;100.00
7441;BME280;29616;51.950;8.572;2023-03-31T00:06:34;98940.19;;;11.67;100.00
7441;BME280;29616;51.950;8.572;2023-03-31T00:09:06;98943.72;;;11.76;100.00
7441;BME280;29616;51.950;8.572;2023-03-31T00:11:37;98943.38;;;11.56;100.00
7441;BME280;29616;51.950;8.572;2023-03-31T00:14:07;98943.25;;;11.35;100.00
7441;BME280;29616;51.950;8.572;2023-03-31T00:16:37;98944.94;;;11.36;100.00
7441;BME280;29616;51.950;8.572;2023-03-31T00:19:06;98944.25;;;11.19;100.00
7441;BME280;29616;51.950;8.572;2023-03-31T00:21:47;98935.19;;;11.19;100.00
7441;BME280;29616;51.950;8.572;2023-03-31T00:24:18;98935.25;;;11.11;100.00
7441;BME280;29616;51.950;8.572;2023-03-31T00:26:46;98941.84;;;11.02;100.00
7441;BME280;29616;51.950;8.572;2023-03-31T00:29:15;98931.56;;;11.04;100.00
7441;BME280;29616;51.950;8.572;2023-03-31T00:31:44;98934.97;;;11.06;100.00
7441;BME280;29616;51.950;8.572;2023-03-31T00:34:15;98924.59;;;11.01;100.00
7441;BME280;29616;51.950;8.572;2023-03-31T00:36:47;98929.00;;;11.02;100.00
7441;BME280;29616;51.950;8.572;2023-03-31T00:39:18;98906.66;;;10.99;100.00
7441;BME280;29616;51.950;8.572;2023-03-31T00:41:46;98910.13;;;10.92;100.00
7441;BME280;29616;51.950;8.572;2023-03-31T00:44:16;98910.84;;;10.86;100.00
7441;BME280;29616;51.950;8.572;2023-03-31T00:46:51;98910.56;;;10.81;100.00
7441;BME280;29616;51.950;8.572;2023-03-31T00:49:26;98892.53;;;10.72;100.00
7441;BME280;29616;51.950;8.572;2023-03-31T00:51:59;98894.88;;;10.75;100.00
7441;BME280;29616;51.950;8.572;2023-03-31T00:54:29;98891.84;;;10.70;100.00
7441;BME280;29616;51.950;8.572;2023-03-31T00:57:02;98879.59;;;10.66;100.00
7441;BME280;29616;51.950;8.572;2023-03-31T00:59:36;98878.94;;;10.64;100.00
7441;BME280;29616;51.950;8.572;2023-03-31T01:02:06;98875.47;;;10.70;100.00
7441;BME280;29616;51.950;8.572;2023-03-31T01:04:37;98876.81;;;10.74;100.00
7441;BME280;29616;51.950;8.572;2023-03-31T01:07:12;98872.00;;;10.76;100.00
7441;BME280;29616;51.950;8.572;2023-03-31T01:09:43;98866.47;;;10.84;100.00
7441;BME280;29616;51.950;8.572;2023-03-31T01:12:15;98862.28;;;10.74;100.00
7441;BME280;29616;51.950;8.572;2023-03-31T01:14:44;98862.47;;;10.72;100.00
7441;BME280;29616;51.950;8.572;2023-03-31T01:17:14;98853.53;;;10.78;100.00
7441;BME280;29616;51.950;8.572;2023-03-31T01:19:53;98852.94;;;10.68;100.00
7441;BME280;29616;51.950;8.572;2023-03-31T01:22:35;98847.28;;;10.70;100.00
7441;BME280;29616;51.950;8.572;2023-03-31T01:25:31;98838.41;;;10.68;100.00
7441;BME280;29616;51.950;8.572;2023-03-31T01:28:10;98837.84;;;10.58;100.00
7441;BME280;29616;51.950;8.572;2023-03-31T01:37:05;98816.00;;;10.35;100.00
7441;BME280;29616;51.950;8.572;2023-03-31T01:39:48;98819.94;;;10.32;100.00
7441;BME280;29616;51.950;8.572;2023-03-31T01:42:24;98814.06;;;10.21;100.00
7441;BME280;29616;51.950;8.572;2023-03-31T01:45:00;98811.38;;;10.13;100.00
7441;BME280;29616;51.950;8.572;2023-03-31T01:47:34;98814.78;;;10.15;100.00
7441;BME280;29616;51.950;8.572;2023-03-31T01:50:09;98818.00;;;10.18;100.00
7441;BME280;29616;51.950;8.572;2023-03-31T01:52:42;98809.19;;;10.31;100.00
7441;BME280;29616;51.950;8.572;2023-03-31T01:55:17;98811.50;;;10.42;100.00
7441;BME280;29616;51.950;8.572;2023-03-31T01:57:49;98794.97;;;10.35;100.00
7441;BME280;29616;51.950;8.572;2023-03-31T02:00:22;98796.56;;;10.53;100.00
7441;BME280;29616;51.950;8.572;2023-03-31T02:02:56;98785.38;;;10.62;100.00
7441;BME280;29616;51.950;8.572;2023-03-31T02:05:30;98761.06;;;10.53;100.00
7441;BME280;29616;51.950;8.572;2023-03-31T02:08:02;98781.59;;;10.63;100.00
7441;BME280;29616;51.950;8.572;2023-03-31T02:10:34;98760.50;;;10.57;100.00
7441;BME280;29616;51.950;8.572;2023-03-31T02:13:03;98760.59;;;10.64;100.00
7441;BME280;29616;51.950;8.572;2023-03-31T02:15:34;98753.72;;;10.68;100.00
7441;BME280;29616;51.950;8.572;2023-03-31T02:18:07;98767.72;;;10.87;100.00
7441;BME280;29616;51.950;8.572;2023-03-31T02:20:39;98771.47;;;10.86;100.00
7441;BME280;29616;51.950;8.572;2023-03-31T02:23:11;98757.06;;;10.92;100.00
7441;BME280;29616;51.950;8.572;2023-03-31T02:25:47;98754.97;;;10.94;100.00
7441;BME280;29616;51.950;8.572;2023-03-31T02:28:20;98735.75;;;11.03;100.00
7441;BME280;29616;51.950;8.572;2023-03-31T02:30:55;98750.94;;;11.05;100.00
7441;BME280;29616;51.950;8.572;2023-03-31T02:33:25;98741.34;;;11.09;100.00
7441;BME280;29616;51.950;8.572;2023-03-31T02:35:56;98738.69;;;11.16;100.00
7441;BME280;29616;51.950;8.572;2023-03-31T02:38:25;98738.78;;;11.22;100.00
7441;BME280;29616;51.950;8.572;2023-03-31T02:40:57;98725.28;;;11.21;100.00
7441;BME280;29616;51.950;8.572;2023-03-31T02:43:27;98718.69;;;11.30;100.00
7441;BME280;29616;51.950;8.572;2023-03-31T02:45:57;98719.53;;;11.30;100.00
7441;BME280;29616;51.950;8.572;2023-03-31T02:48:27;98714.50;;;11.34;100.00
7441;BME280;29616;51.950;8.572;2023-03-31T02:51:05;98709.19;;;11.47;100.00
7441;BME280;29616;51.950;8.572;2023-03-31T02:53:47;98703.81;;;11.53;100.00
7441;BME280;29616;51.950;8.572;2023-03-31T02:56:43;98701.94;;;11.54;100.00
7441;BME280;29616;51.950;8.572;2023-03-31T02:59:19;98691.25;;;11.59;100.00
7441;BME280;29616;51.950;8.572;2023-03-31T03:02:02;98693.53;;;11.55;100.00
7441;BME280;29616;51.950;8.572;2023-03-31T03:04:39;98689.44;;;11.66;100.00
7441;BME280;29616;51.950;8.572;2023-03-31T03:07:16;98683.25;;;11.72;100.00
7441;BME280;29616;51.950;8.572;2023-03-31T03:09:52;98677.47;;;11.67;100.00
7441;BME280;29616;51.950;8.572;2023-03-31T03:12:27;98676.81;;;11.65;100.00
7441;BME280;29616;51.950;8.572;2023-03-31T03:14:59;98671.91;;;11.61;100.00
7441;BME280;29616;51.950;8.572;2023-03-31T03:17:33;98667.16;;;11.48;100.00
7441;BME280;29616;51.950;8.572;2023-03-31T03:20:04;98655.19;;;11.34;100.00
7441;BME280;29616;51.950;8.572;2023-03-31T03:22:34;98641.03;;;11.45;100.00
7441;BME280;29616;51.950;8.572;2023-03-31T03:25:03;98650.47;;;11.43;100.00
7441;BME280;29616;51.950;8.572;2023-03-31T03:27:36;98628.66;;;11.14;100.00
7441;BME280;29616;51.950;8.572;2023-03-31T03:30:07;98642.50;;;11.27;100.00
7441;BME280;29616;51.950;8.572;2023-03-31T03:32:37;98644.09;;;11.21;100.00
7441;BME280;29616;51.950;8.572;2023-03-31T03:35:06;98626.25;;;11.04;100.00
7441;BME280;29616;51.950;8.572;2023-03-31T03:37:35;98614.19;;;10.99;100.00
7441;BME280;29616;51.950;8.572;2023-03-31T03:40:05;98629.13;;;11.17;100.00
7441;BME280;29616;51.950;8.572;2023-03-31T03:42:37;98608.28;;;11.16;100.00
7441;BME280;29616;51.950;8.572;2023-03-31T03:45:06;98594.56;;;11.10;100.00
7441;BME280;29616;51.950;8.572;2023-03-31T03:47:36;98600.13;;;11.02;100.00
7441;BME280;29616;51.950;8.572;2023-03-31T03:50:06;98586.75;;;11.07;100.00
7441;BME280;29616;51.950;8.572;2023-03-31T03:52:34;98579.09;;;11.02;100.00
7441;BME280;29616;51.950;8.572;2023-03-31T03:55:03;98571.16;;;11.07;100.00
7441;BME280;29616;51.950;8.572;2023-03-31T03:57:34;98564.88;;;11.07;100.00
7441;BME280;29616;51.950;8.572;2023-03-31T04:00:05;98555.22;;;11.11;100.00
7441;BME280;29616;51.950;8.572;2023-03-31T04:02:37;98553.94;;;11.07;100.00
7441;BME280;29616;51.950;8.572;2023-03-31T04:05:07;98542.53;;;11.03;100.00
7441;BME280;29616;51.950;8.572;2023-03-31T04:07:36;98533.34;;;11.11;100.00
7441;BME280;29616;51.950;8.572;2023-03-31T04:10:05;98510.97;;;11.01;100.00
7441;BME280;29616;51.950;8.572;2023-03-31T04:12:35;98520.75;;;11.10;100.00
7441;BME280;29616;51.950;8.572;2023-03-31T04:15:07;98533.47;;;11.03;100.00
7441;BME280;29616;51.950;8.572;2023-03-31T04:17:38;98524.50;;;11.09;100.00
7441;BME280;29616;51.950;8.572;2023-03-31T04:20:08;98527.03;;;11.10;100.00
7441;BME280;29616;51.950;8.572;2023-03-31T04:22:40;98512.94;;;11.07;100.00
7441;BME280;29616;51.950;8.572;2023-03-31T04:25:09;98516.31;;;11.09;100.00
7441;BME280;29616;51.950;8.572;2023-03-31T04:27:43;98521.88;;;11.01;100.00
7441;BME280;29616;51.950;8.572;2023-03-31T04:30:15;98505.28;;;11.02;100.00
7441;BME280;29616;51.950;8.572;2023-03-31T04:32:50;98502.75;;;11.01;100.00
7441;BME280;29616;51.950;8.572;2023-03-31T04:35:19;98503.03;;;11.06;100.00
7441;BME280;29616;51.950;8.572;2023-03-31T04:37:50;98480.31;;;11.05;100.00
7441;BME280;29616;51.950;8.572;2023-03-31T04:40:25;98484.09;;;11.04;100.00
7441;BME280;29616;51.950;8.572;2023-03-31T04:42:53;98490.78;;;11.02;100.00
7441;BME280;29616;51.950;8.572;2023-03-31T04:45:23;98489.16;;;11.07;100.00
7441;BME280;29616;51.950;8.572;2023-03-31T04:47:51;98465.22;;;11.09;100.00
7441;BME280;29616;51.950;8.572;2023-03-31T04:50:19;98464.75;;;11.06;100.00
7441;BME280;29616;51.950;8.572;2023-03-31T04:52:49;98464.75;;;11.06;100.00
7441;BME280;29616;51.950;8.572;2023-03-31T04:55:18;98453.34;;;11.02;100.00
7441;BME280;29616;51.950;8.572;2023-03-31T04:57:48;98453.56;;;11.01;100.00
7441;BME280;29616;51.950;8.572;2023-03-31T05:00:18;98452.44;;;10.95;100.00
7441;BME280;29616;51.950;8.572;2023-03-31T05:02:49;98441.44;;;10.88;100.00
7441;BME280;29616;51.950;8.572;2023-03-31T05:05:19;98451.59;;;10.94;100.00
7441;BME280;29616;51.950;8.572;2023-03-31T05:07:48;98442.16;;;10.97;100.00
7441;BME280;29616;51.950;8.572;2023-03-31T05:10:18;98439.63;;;10.95;100.00
7441;BME280;29616;51.950;8.572;2023-03-31T05:12:49;98427.63;;;10.96;100.00
7441;BME280;29616;51.950;8.572;2023-03-31T05:15:17;98432.06;;;10.98;100.00
7441;BME280;29616;51.950;8.572;2023-03-31T05:17:46;98430.66;;;11.02;100.00
7441;BME280;29616;51.950;8.572;2023-03-31T05:20:17;98417.56;;;10.97;100.00
7441;BME280;29616;51.950;8.572;2023-03-31T05:22:46;98417.13;;;10.93;100.00
7441;BME280;29616;51.950;8.572;2023-03-31T05:25:15;98418.19;;;10.99;100.00
7441;BME280;29616;51.950;8.572;2023-03-31T05:27:46;98415.94;;;11.03;100.00
7441;BME280;29616;51.950;8.572;2023-03-31T05:30:16;98412.56;;;11.01;100.00
7441;BME280;29616;51.950;8.572;2023-03-31T05:32:46;98402.88;;;10.98;100.00
7441;BME280;29616;51.950;8.572;2023-03-31T05:35:17;98397.66;;;11.03;100.00
7441;BME280;29616;51.950;8.572;2023-03-31T05:37:45;98402.25;;;11.03;100.00
7441;BME280;29616;51.950;8.572;2023-03-31T05:40:15;98398.69;;;11.02;100.00
7441;BME280;29616;51.950;8.572;2023-03-31T05:42:46;98403.63;;;10.92;100.00
7441;BME280;29616;51.950;8.572;2023-03-31T05:45:14;98394.59;;;10.91;100.00
7441;BME280;29616;51.950;8.572;2023-03-31T05:47:43;98392.53;;;10.93;100.00
7441;BME280;29616;51.950;8.572;2023-03-31T05:50:11;98376.13;;;10.93;100.00
7441;BME280;29616;51.950;8.572;2023-03-31T05:52:43;98375.84;;;10.88;100.00
7441;BME280;29616;51.950;8.572;2023-03-31T05:55:11;98372.34;;;10.94;100.00
7441;BME280;29616;51.950;8.572;2023-03-31T05:57:40;98361.78;;;10.91;100.00
7441;BME280;29616;51.950;8.572;2023-03-31T06:00:11;98354.78;;;11.04;100.00
7441;BME280;29616;51.950;8.572;2023-03-31T06:02:41;98367.59;;;11.03;100.00
7441;BME280;29616;51.950;8.572;2023-03-31T06:05:11;98356.03;;;11.08;100.00
7441;BME280;29616;51.950;8.572;2023-03-31T06:07:40;98366.81;;;11.09;100.00
7441;BME280;29616;51.950;8.572;2023-03-31T06:10:10;98354.16;;;11.08;100.00
7441;BME280;29616;51.950;8.572;2023-03-31T06:12:40;98344.25;;;11.07;100.00
7441;BME280;29616;51.950;8.572;2023-03-31T06:15:09;98344.72;;;11.11;100.00
7441;BME280;29616;51.950;8.572;2023-03-31T06:17:38;98335.63;;;11.04;100.00
7441;BME280;29616;51.950;8.572;2023-03-31T06:20:08;98327.03;;;11.07;100.00
7441;BME280;29616;51.950;8.572;2023-03-31T06:22:53;98320.25;;;11.03;100.00
7441;BME280;29616;51.950;8.572;2023-03-31T06:25:24;98323.91;;;11.10;100.00
7441;BME280;29616;51.950;8.572;2023-03-31T06:28:00;98312.31;;;11.08;100.00
7441;BME280;29616;51.950;8.572;2023-03-31T06:30:28;98303.56;;;11.19;100.00
7441;BME280;29616;51.950;8.572;2023-03-31T06:32:59;98301.06;;;11.24;100.00
7441;BME280;29616;51.950;8.572;2023-03-31T06:35:29;98292.00;;;11.17;100.00
7441;BME280;29616;51.950;8.572;2023-03-31T06:37:57;98290.13;;;11.24;100.00
7441;BME280;29616;51.950;8.572;2023-03-31T06:40:27;98280.50;;;11.28;100.00
7441;BME280;29616;51.950;8.572;2023-03-31T06:42:55;98275.09;;;11.41;100.00
7441;BME280;29616;51.950;8.572;2023-03-31T06:45:24;98280.41;;;11.49;100.00
7441;BME280;29616;51.950;8.572;2023-03-31T06:47:52;98280.75;;;11.39;100.00
7441;BME280;29616;51.950;8.572;2023-03-31T06:50:21;98281.22;;;11.43;100.00
7441;BME280;29616;51.950;8.572;2023-03-31T06:52:49;98274.41;;;11.32;100.00
7441;BME280;29616;51.950;8.572;2023-03-31T06:55:22;98275.88;;;11.28;100.00
7441;BME280;29616;51.950;8.572;2023-03-31T06:57:52;98271.44;;;11.27;100.00
7441;BME280;29616;51.950;8.572;2023-03-31T07:00:22;98271.63;;;11.26;100.00
7441;BME280;29616;51.950;8.572;2023-03-31T07:02:54;98263.44;;;11.26;100.00
7441;BME280;29616;51.950;8.572;2023-03-31T07:05:24;98258.25;;;11.37;100.00
7441;BME280;29616;51.950;8.572;2023-03-31T07:07:56;98244.06;;;11.21;100.00
7441;BME280;29616;51.950;8.572;2023-03-31T07:10:27;98248.97;;;11.32;100.00
7441;BME280;29616;51.950;8.572;2023-03-31T07:12:58;98242.00;;;11.29;100.00
7441;BME280;29616;51.950;8.572;2023-03-31T07:15:29;98239.47;;;11.28;100.00
7441;BME280;29616;51.950;8.572;2023-03-31T07:17:58;98235.50;;;11.37;100.00
7441;BME280;29616;51.950;8.572;2023-03-31T07:20:28;98237.84;;;11.40;100.00
7441;BME280;29616;51.950;8.572;2023-03-31T07:22:58;98217.56;;;11.62;100.00
7441;BME280;29616;51.950;8.572;2023-03-31T07:25:26;98215.22;;;11.59;100.00
7441;BME280;29616;51.950;8.572;2023-03-31T07:27:58;98222.50;;;11.39;100.00
7441;BME280;29616;51.950;8.572;2023-03-31T07:30:28;98206.56;;;11.49;100.00
7441;BME280;29616;51.950;8.572;2023-03-31T07:32:58;98214.00;;;11.68;100.00
7441;BME280;29616;51.950;8.572;2023-03-31T07:35:28;98201.84;;;11.77;100.00
7441;BME280;29616;51.950;8.572;2023-03-31T07:37:59;98207.72;;;11.74;100.00
7441;BME280;29616;51.950;8.572;2023-03-31T07:40:29;98196.28;;;11.57;100.00
7441;BME280;29616;51.950;8.572;2023-03-31T07:42:59;98189.34;;;11.62;100.00
7441;BME280;29616;51.950;8.572;2023-03-31T07:45:29;98193.56;;;11.57;100.00
7441;BME280;29616;51.950;8.572;2023-03-31T07:47:59;98183.66;;;11.63;100.00
7441;BME280;29616;51.950;8.572;2023-03-31T07:50:29;98184.06;;;11.53;100.00
7441;BME280;29616;51.950;8.572;2023-03-31T07:53:00;98182.41;;;11.59;100.00
7441;BME280;29616;51.950;8.572;2023-03-31T07:55:30;98186.13;;;11.45;100.00
7441;BME280;29616;51.950;8.572;2023-03-31T07:58:02;98172.66;;;11.50;100.00
7441;BME280;29616;51.950;8.572;2023-03-31T08:00:32;98180.09;;;11.63;100.00
7441;BME280;29616;51.950;8.572;2023-03-31T08:03:00;98171.84;;;11.56;100.00
7441;BME280;29616;51.950;8.572;2023-03-31T08:05:29;98170.81;;;11.64;100.00
7441;BME280;29616;51.950;8.572;2023-03-31T08:07:59;98167.84;;;11.52;100.00
7441;BME280;29616;51.950;8.572;2023-03-31T08:10:29;98169.81;;;11.71;100.00
7441;BME280;29616;51.950;8.572;2023-03-31T08:12:59;98170.63;;;11.65;100.00
7441;BME280;29616;51.950;8.572;2023-03-31T08:15:32;98179.03;;;11.64;100.00
7441;BME280;29616;51.950;8.572;2023-03-31T08:18:03;98162.47;;;11.72;100.00
7441;BME280;29616;51.950;8.572;2023-03-31T08:20:33;98153.38;;;11.65;100.00
7441;BME280;29616;51.950;8.572;2023-03-31T08:23:01;98155.44;;;11.56;100.00
7441;BME280;29616;51.950;8.572;2023-03-31T08:25:32;98158.38;;;11.48;100.00
7441;BME280;29616;51.950;8.572;2023-03-31T08:28:04;98157.06;;;11.37;100.00
7441;BME280;29616;51.950;8.572;2023-03-31T08:30:38;98156.22;;;11.37;100.00
7441;BME280;29616;51.950;8.572;2023-03-31T08:33:08;98156.47;;;11.48;100.00
7441;BME280;29616;51.950;8.572;2023-03-31T08:35:39;98156.47;;;11.55;100.00
7441;BME280;29616;51.950;8.572;2023-03-31T08:38:07;98162.16;;;11.53;100.00
7441;BME280;29616;51.950;8.572;2023-03-31T08:40:35;98160.00;;;11.36;100.00
7441;BME280;29616;51.950;8.572;2023-03-31T08:43:11;98152.84;;;11.35;100.00
7441;BME280;29616;51.950;8.572;2023-03-31T08:45:44;98161.31;;;11.53;100.00
7441;BME280;29616;51.950;8.572;2023-03-31T08:48:18;98160.28;;;11.61;100.00
7441;BME280;29616;51.950;8.572;2023-03-31T08:50:53;98144.50;;;11.49;100.00
7441;BME280;29616;51.950;8.572;2023-03-31T08:53:25;98158.94;;;11.37;100.00
7441;BME280;29616;51.950;8.572;2023-03-31T08:55:57;98155.75;;;11.27;100.00
7441;BME280;29616;51.950;8.572;2023-03-31T08:58:32;98157.47;;;11.34;100.00
7441;BME280;29616;51.950;8.572;2023-03-31T09:01:07;98158.75;;;11.38;100.00
7441;BME280;29616;51.950;8.572;2023-03-31T09:03:46;98162.13;;;11.40;100.00
7441;BME280;29616;51.950;8.572;2023-03-31T09:06:21;98166.13;;;11.38;100.00
7441;BME280;29616;51.950;8.572;2023-03-31T09:08:52;98160.19;;;11.28;100.00
7441;BME280;29616;51.950;8.572;2023-03-31T09:11:28;98145.69;;;11.34;100.00
7441;BME280;29616;51.950;8.572;2023-03-31T09:14:08;98159.44;;;11.06;100.00
7441;BME280;29616;51.950;8.572;2023-03-31T09:16:42;98156.34;;;11.16;100.00
7441;BME280;29616;51.950;8.572;2023-03-31T09:19:17;98131.78;;;11.22;100.00
7441;BME280;29616;51.950;8.572;2023-03-31T09:21:49;98154.38;;;11.03;100.00
7441;BME280;29616;51.950;8.572;2023-03-31T09:24:19;98153.81;;;11.21;100.00
7441;BME280;29616;51.950;8.572;2023-03-31T09:26:52;98147.72;;;11.19;100.00
7441;BME280;29616;51.950;8.572;2023-03-31T09:29:27;98142.25;;;11.12;100.00
7441;BME280;29616;51.950;8.572;2023-03-31T09:32:05;98135.81;;;11.33;100.00
7441;BME280;29616;51.950;8.572;2023-03-31T09:34:41;98140.03;;;11.42;100.00
7441;BME280;29616;51.950;8.572;2023-03-31T09:37:11;98130.56;;;11.38;100.00
7441;BME280;29616;51.950;8.572;2023-03-31T09:39:42;98145.03;;;11.32;100.00
7441;BME280;29616;51.950;8.572;2023-03-31T09:42:12;98135.94;;;11.18;100.00
7441;BME280;29616;51.950;8.572;2023-03-31T09:44:43;98136.78;;;11.19;100.00
7441;BME280;29616;51.950;8.572;2023-03-31T09:47:17;98127.97;;;11.17;100.00
7441;BME280;29616;51.950;8.572;2023-03-31T09:49:50;98124.03;;;11.32;100.00
7441;BME280;29616;51.950;8.572;2023-03-31T09:52:24;98130.16;;;11.41;100.00
7441;BME280;29616;51.950;8.572;2023-03-31T09:54:56;98128.22;;;11.35;100.00
7441;BME280;29616;51.950;8.572;2023-03-31T09:57:28;98123.22;;;11.38;100.00
7441;BME280;29616;51.950;8.572;2023-03-31T10:00:03;98115.03;;;11.58;100.00
7441;BME280;29616;51.950;8.572;2023-03-31T10:02:41;98119.47;;;11.59;100.00
7441;BME280;29616;51.950;8.572;2023-03-31T10:05:25;98104.94;;;11.52;100.00
7441;BME280;29616;51.950;8.572;2023-03-31T10:08:10;98104.09;;;11.58;100.00
7441;BME280;29616;51.950;8.572;2023-03-31T10:10:43;98113.19;;;11.65;100.00
7441;BME280;29616;51.950;8.572;2023-03-31T10:13:14;98104.28;;;11.50;100.00
7441;BME280;29616;51.950;8.572;2023-03-31T10:15:44;98108.31;;;11.54;100.00
7441;BME280;29616;51.950;8.572;2023-03-31T10:18:15;98100.13;;;11.67;100.00
7441;BME280;29616;51.950;8.572;2023-03-31T10:20:47;98106.69;;;11.79;100.00
7441;BME280;29616;51.950;8.572;2023-03-31T10:23:22;98105.44;;;11.75;100.00
7441;BME280;29616;51.950;8.572;2023-03-31T10:25:52;98099.16;;;11.81;100.00
7441;BME280;29616;51.950;8.572;2023-03-31T10:28:23;98091.78;;;12.01;100.00
7441;BME280;29616;51.950;8.572;2023-03-31T10:30:53;98102.09;;;11.99;100.00
7441;BME280;29616;51.950;8.572;2023-03-31T10:33:26;98080.19;;;11.99;100.00
7441;BME280;29616;51.950;8.572;2023-03-31T10:35:57;98064.38;;;11.95;100.00
7441;BME280;29616;51.950;8.572;2023-03-31T10:38:29;98081.88;;;12.13;100.00
7441;BME280;29616;51.950;8.572;2023-03-31T10:41:01;98065.00;;;12.30;100.00
7441;BME280;29616;51.950;8.572;2023-03-31T10:43:34;98067.94;;;12.48;100.00
7441;BME280;29616;51.950;8.572;2023-03-31T10:46:07;98071.72;;;12.47;100.00
7441;BME280;29616;51.950;8.572;2023-03-31T10:48:39;98055.91;;;12.55;100.00
7441;BME280;29616;51.950;8.572;2023-03-31T10:51:14;98064.97;;;12.56;100.00
7441;BME280;29616;51.950;8.572;2023-03-31T10:53:45;98051.88;;;12.64;100.00
7441;BME280;29616;51.950;8.572;2023-03-31T10:56:32;98055.78;;;12.88;100.00
7441;BME280;29616;51.950;8.572;2023-03-31T10:59:08;98055.09;;;13.57;100.00
7441;BME280;29616;51.950;8.572;2023-03-31T11:01:46;98056.00;;;14.00;100.00
7441;BME280;29616;51.950;8.572;2023-03-31T11:04:44;98044.22;;;13.68;100.00
7441;BME280;29616;51.950;8.572;2023-03-31T11:07:31;98052.44;;;14.00;100.00
7441;BME280;29616;51.950;8.572;2023-03-31T11:10:20;98037.19;;;14.28;100.00
7441;BME280;29616;51.950;8.572;2023-03-31T11:12:58;98039.38;;;14.44;100.00
7441;BME280;29616;51.950;8.572;2023-03-31T11:15:31;98030.25;;;14.69;100.00
7441;BME280;29616;51.950;8.572;2023-03-31T11:18:10;98026.88;;;15.03;100.00
7441;BME280;29616;51.950;8.572;2023-03-31T11:20:49;98024.34;;;15.79;100.00
7441;BME280;29616;51.950;8.572;2023-03-31T11:23:20;98011.22;;;15.63;100.00
7441;BME280;29616;51.950;8.572;2023-03-31T11:25:57;98023.63;;;15.24;100.00
7441;BME280;29616;51.950;8.572;2023-03-31T11:28:54;98013.72;;;15.05;100.00
7441;BME280;29616;51.950;8.572;2023-03-31T11:31:32;98004.47;;;14.99;100.00
7441;BME280;29616;51.950;8.572;2023-03-31T11:34:17;98012.66;;;14.70;100.00
7441;BME280;29616;51.950;8.572;2023-03-31T11:37:00;98002.88;;;14.37;100.00
7441;BME280;29616;51.950;8.572;2023-03-31T11:39:41;97995.63;;;14.97;100.00
7441;BME280;29616;51.950;8.572;2023-03-31T11:42:13;97989.50;;;15.43;100.00
7441;BME280;29616;51.950;8.572;2023-03-31T11:44:47;98000.53;;;15.25;100.00
7441;BME280;29616;51.950;8.572;2023-03-31T11:47:19;98004.91;;;15.44;100.00
7441;BME280;29616;51.950;8.572;2023-03-31T11:49:51;97998.28;;;15.22;100.00
7441;BME280;29616;51.950;8.572;2023-03-31T11:52:24;98006.03;;;14.95;100.00
7441;BME280;29616;51.950;8.572;2023-03-31T11:54:58;97994.97;;;14.84;100.00
7441;BME280;29616;51.950;8.572;2023-03-31T11:57:30;97994.50;;;14.69;100.00
7441;BME280;29616;51.950;8.572;2023-03-31T12:00:03;97989.88;;;14.26;100.00
7441;BME280;29616;51.950;8.572;2023-03-31T12:02:38;97999.03;;;14.20;100.00
7441;BME280;29616;51.950;8.572;2023-03-31T12:05:10;97993.25;;;14.04;100.00
7441;BME280;29616;51.950;8.572;2023-03-31T12:07:43;97986.91;;;14.03;100.00
7441;BME280;29616;51.950;8.572;2023-03-31T12:10:18;97989.69;;;14.21;100.00
7441;BME280;29616;51.950;8.572;2023-03-31T12:12:50;97972.75;;;14.24;100.00
7441;BME280;29616;51.950;8.572;2023-03-31T12:15:24;97980.50;;;13.91;100.00
7441;BME280;29616;51.950;8.572;2023-03-31T12:17:58;97983.72;;;14.06;100.00
7441;BME280;29616;51.950;8.572;2023-03-31T12:20:32;97971.00;;;14.30;100.00
7441;BME280;29616;51.950;8.572;2023-03-31T12:23:09;97961.69;;;14.13;100.00
7441;BME280;29616;51.950;8.572;2023-03-31T12:25:43;97961.44;;;13.96;100.00
7441;BME280;29616;51.950;8.572;2023-03-31T12:28:16;97958.16;;;14.06;100.00
7441;BME280;29616;51.950;8.572;2023-03-31T12:30:45;97946.59;;;14.22;100.00
7441;BME280;29616;51.950;8.572;2023-03-31T12:33:17;97942.22;;;13.96;100.00
7441;BME280;29616;51.950;8.572;2023-03-31T12:35:55;97957.31;;;14.05;100.00
7441;BME280;29616;51.950;8.572;2023-03-31T12:38:35;97960.25;;;14.10;100.00
7441;BME280;29616;51.950;8.572;2023-03-31T12:41:13;97954.06;;;14.39;100.00
7441;BME280;29616;51.950;8.572;2023-03-31T12:43:50;97946.78;;;15.11;100.00
7441;BME280;29616;51.950;8.572;2023-03-31T12:46:38;97954.84;;;15.24;100.00
7441;BME280;29616;51.950;8.572;2023-03-31T12:49:15;97942.47;;;15.45;100.00
7441;BME280;29616;51.950;8.572;2023-03-31T12:51:57;97934.53;;;15.90;100.00
7441;BME280;29616;51.950;8.572;2023-03-31T12:54:33;97941.00;;;15.84;100.00
7441;BME280;29616;51.950;8.572;2023-03-31T12:57:12;97936.69;;;16.11;100.00
7441;BME280;29616;51.950;8.572;2023-03-31T12:59:45;97933.72;;;16.01;100.00
7441;BME280;29616;51.950;8.572;2023-03-31T13:02:35;97928.66;;;15.33;100.00
7441;BME280;29616;51.950;8.572;2023-03-31T13:07:50;97927.69;;;14.68;100.00
7441;BME280;29616;51.950;8.572;2023-03-31T13:10:27;97939.78;;;14.24;100.00
7441;BME280;29616;51.950;8.572;2023-03-31T13:13:04;97976.25;;;13.01;100.00
7441;BME280;29616;51.950;8.572;2023-03-31T13:15:35;97965.56;;;12.42;100.00
7441;BME280;29616;51.950;8.572;2023-03-31T13:18:05;97978.66;;;12.14;100.00
7441;BME280;29616;51.950;8.572;2023-03-31T13:20:35;97986.81;;;12.47;100.00
7441;BME280;29616;51.950;8.572;2023-03-31T13:23:06;97985.72;;;12.61;100.00
7441;BME280;29616;51.950;8.572;2023-03-31T13:25:45;97975.53;;;12.74;100.00
7441;BME280;29616;51.950;8.572;2023-03-31T13:28:25;97979.59;;;13.10;100.00
7441;BME280;29616;51.950;8.572;2023-03-31T13:30:57;97985.06;;;13.16;100.00
7441;BME280;29616;51.950;8.572;2023-03-31T13:33:42;97987.09;;;13.27;100.00
7441;BME280;29616;51.950;8.572;2023-03-31T13:39:10;97981.50;;;13.03;100.00
7441;BME280;29616;51.950;8.572;2023-03-31T13:41:50;97981.41;;;12.78;100.00